sensor_id;sensor_type;location;lat;lon;timestamp;temperature;humidity
42037;DHT22;75222;52.004;5.908;2024-01-06T00:01:03;7.70;98.20
42037;DHT22;75222;52.004;5.908;2024-01-06T00:03:29;7.70;98.10
42037;DHT22;75222;52.004;5.908;2024-01-06T00:05:54;7.60;98.10
42037;DHT22;75222;52.004;5.908;2024-01-06T00:08:20;7.60;98.10
42037;DHT22;75222;52.004;5.908;2024-01-06T00:10:45;7.50;98.10
42037;DHT22;75222;52.004;5.908;2024-01-06T00:13:11;7.50;98.10
42037;DHT22;75222;52.004;5.908;2024-01-06T00:15:37;7.50;98.10
42037;DHT22;75222;52.004;5.908;2024-01-06T00:18:02;7.50;98.10
42037;DHT22;75222;52.004;5.908;2024-01-06T00:20:28;7.50;98.10
42037;DHT22;75222;52.004;5.908;2024-01-06T00:22:54;7.50;98.00
42037;DHT22;75222;52.004;5.908;2024-01-06T00:25:21;7.50;97.90
42037;DHT22;75222;52.004;5.908;2024-01-06T00:27:47;7.50;97.90
42037;DHT22;75222;52.004;5.908;2024-01-06T00:30:13;7.40;97.90
42037;DHT22;75222;52.004;5.908;2024-01-06T00:32:38;7.40;98.00
42037;DHT22;75222;52.004;5.908;2024-01-06T00:35:04;7.40;98.00
42037;DHT22;75222;52.004;5.908;2024-01-06T00:37:30;7.40;97.90
42037;DHT22;75222;52.004;5.908;2024-01-06T00:39:55;7.30;97.90
42037;DHT22;75222;52.004;5.908;2024-01-06T00:42:21;7.40;97.90
42037;DHT22;75222;52.004;5.908;2024-01-06T00:44:46;7.30;97.90
42037;DHT22;75222;52.004;5.908;2024-01-06T00:47:12;7.30;97.90
42037;DHT22;75222;52.004;5.908;2024-01-06T00:49:38;7.30;97.90
42037;DHT22;75222;52.004;5.908;2024-01-06T00:52:03;7.20;97.80
42037;DHT22;75222;52.004;5.908;2024-01-06T00:54:29;7.20;97.90
42037;DHT22;75222;52.004;5.908;2024-01-06T00:56:55;7.20;97.90
42037;DHT22;75222;52.004;5.908;2024-01-06T00:59:20;7.20;97.90
42037;DHT22;75222;52.004;5.908;2024-01-06T01:01:46;7.10;97.80
42037;DHT22;75222;52.004;5.908;2024-01-06T01:04:11;7.10;97.80
42037;DHT22;75222;52.004;5.908;2024-01-06T01:06:37;7.10;97.90
42037;DHT22;75222;52.004;5.908;2024-01-06T01:09:03;7.10;98.00
42037;DHT22;75222;52.004;5.908;2024-01-06T01:11:30;7.20;98.00
42037;DHT22;75222;52.004;5.908;2024-01-06T01:13:55;7.10;97.90
42037;DHT22;75222;52.004;5.908;2024-01-06T01:16:21;7.10;97.90
42037;DHT22;75222;52.004;5.908;2024-01-06T01:18:47;7.10;97.90
42037;DHT22;75222;52.004;5.908;2024-01-06T01:21:12;7.10;97.90
42037;DHT22;75222;52.004;5.908;2024-01-06T01:23:38;7.10;97.80
42037;DHT22;75222;52.004;5.908;2024-01-06T01:26:03;7.10;97.80
42037;DHT22;75222;52.004;5.908;2024-01-06T01:28:29;7.00;97.80
42037;DHT22;75222;52.004;5.908;2024-01-06T01:30:54;7.00;97.80
42037;DHT22;75222;52.004;5.908;2024-01-06T01:33:20;7.10;97.80
42037;DHT22;75222;52.004;5.908;2024-01-06T01:35:45;7.10;97.80
42037;DHT22;75222;52.004;5.908;2024-01-06T01:38:11;7.10;97.60
42037;DHT22;75222;52.004;5.908;2024-01-06T01:40:36;7.10;97.60
42037;DHT22;75222;52.004;5.908;2024-01-06T01:43:02;7.10;97.70
42037;DHT22;75222;52.004;5.908;2024-01-06T01:45:28;7.10;97.60
42037;DHT22;75222;52.004;5.908;2024-01-06T01:47:53;7.10;97.60
42037;DHT22;75222;52.004;5.908;2024-01-06T01:50:19;7.00;97.60
42037;DHT22;75222;52.004;5.908;2024-01-06T01:52:46;7.00;97.50
42037;DHT22;75222;52.004;5.908;2024-01-06T01:55:11;7.00;97.60
42037;DHT22;75222;52.004;5.908;2024-01-06T01:57:37;7.10;97.60
42037;DHT22;75222;52.004;5.908;2024-01-06T02:00:03;7.10;97.50
42037;DHT22;75222;52.004;5.908;2024-01-06T02:02:29;7.10;97.50
42037;DHT22;75222;52.004;5.908;2024-01-06T02:04:56;7.00;97.50
42037;DHT22;75222;52.004;5.908;2024-01-06T02:07:21;7.00;97.40
42037;DHT22;75222;52.004;5.908;2024-01-06T02:09:47;6.90;97.40
42037;DHT22;75222;52.004;5.908;2024-01-06T02:12:12;6.90;97.50
42037;DHT22;75222;52.004;5.908;2024-01-06T02:14:38;6.80;97.60
42037;DHT22;75222;52.004;5.908;2024-01-06T02:17:03;6.80;97.60
42037;DHT22;75222;52.004;5.908;2024-01-06T02:19:29;6.80;97.70
42037;DHT22;75222;52.004;5.908;2024-01-06T02:21:55;6.70;97.70
42037;DHT22;75222;52.004;5.908;2024-01-06T02:24:21;6.70;97.70
42037;DHT22;75222;52.004;5.908;2024-01-06T02:26:46;6.70;97.80
42037;DHT22;75222;52.004;5.908;2024-01-06T02:29:12;6.60;97.80
42037;DHT22;75222;52.004;5.908;2024-01-06T02:31:38;6.60;97.80
42037;DHT22;75222;52.004;5.908;2024-01-06T02:34:03;6.60;97.90
42037;DHT22;75222;52.004;5.908;2024-01-06T02:36:29;6.60;97.90
42037;DHT22;75222;52.004;5.908;2024-01-06T02:38:55;6.50;97.80
42037;DHT22;75222;52.004;5.908;2024-01-06T02:41:20;6.50;97.80
42037;DHT22;75222;52.004;5.908;2024-01-06T02:43:46;6.50;97.80
42037;DHT22;75222;52.004;5.908;2024-01-06T02:46:12;6.50;97.80
42037;DHT22;75222;52.004;5.908;2024-01-06T02:48:38;6.40;97.80
42037;DHT22;75222;52.004;5.908;2024-01-06T02:51:03;6.40;97.80
42037;DHT22;75222;52.004;5.908;2024-01-06T02:53:29;6.40;97.80
42037;DHT22;75222;52.004;5.908;2024-01-06T02:55:54;6.30;97.80
42037;DHT22;75222;52.004;5.908;2024-01-06T02:58:20;6.30;97.80
42037;DHT22;75222;52.004;5.908;2024-01-06T03:00:45;6.30;97.80
42037;DHT22;75222;52.004;5.908;2024-01-06T03:03:11;6.30;97.90
42037;DHT22;75222;52.004;5.908;2024-01-06T03:05:37;6.30;97.80
42037;DHT22;75222;52.004;5.908;2024-01-06T03:08:03;6.30;97.80
42037;DHT22;75222;52.004;5.908;2024-01-06T03:10:29;6.40;97.80
42037;DHT22;75222;52.004;5.908;2024-01-06T03:12:54;6.30;97.80
42037;DHT22;75222;52.004;5.908;2024-01-06T03:15:20;6.30;97.70
42037;DHT22;75222;52.004;5.908;2024-01-06T03:17:46;6.30;97.70
42037;DHT22;75222;52.004;5.908;2024-01-06T03:20:11;6.40;97.70
42037;DHT22;75222;52.004;5.908;2024-01-06T03:22:37;6.30;97.70
42037;DHT22;75222;52.004;5.908;2024-01-06T03:25:03;6.30;97.70
42037;DHT22;75222;52.004;5.908;2024-01-06T03:27:29;6.30;97.60
42037;DHT22;75222;52.004;5.908;2024-01-06T03:29:55;6.30;97.80
42037;DHT22;75222;52.004;5.908;2024-01-06T03:32:21;6.30;97.70
42037;DHT22;75222;52.004;5.908;2024-01-06T03:34:47;6.30;97.70
42037;DHT22;75222;52.004;5.908;2024-01-06T03:37:12;6.30;97.70
42037;DHT22;75222;52.004;5.908;2024-01-06T03:39:38;6.30;97.60
42037;DHT22;75222;52.004;5.908;2024-01-06T03:42:04;6.30;97.60
42037;DHT22;75222;52.004;5.908;2024-01-06T03:44:29;6.30;97.70
42037;DHT22;75222;52.004;5.908;2024-01-06T03:46:59;6.20;97.50
42037;DHT22;75222;52.004;5.908;2024-01-06T03:49:25;6.20;97.60
42037;DHT22;75222;52.004;5.908;2024-01-06T03:51:51;6.20;97.60
42037;DHT22;75222;52.004;5.908;2024-01-06T03:54:16;6.20;97.60
42037;DHT22;75222;52.004;5.908;2024-01-06T03:56:42;6.20;97.60
42037;DHT22;75222;52.004;5.908;2024-01-06T03:59:08;6.20;97.60
42037;DHT22;75222;52.004;5.908;2024-01-06T04:01:34;6.20;97.70
42037;DHT22;75222;52.004;5.908;2024-01-06T04:04:04;6.20;97.70
42037;DHT22;75222;52.004;5.908;2024-01-06T04:06:30;6.20;97.60
42037;DHT22;75222;52.004;5.908;2024-01-06T04:08:57;6.20;97.60
42037;DHT22;75222;52.004;5.908;2024-01-06T04:11:23;6.10;97.60
42037;DHT22;75222;52.004;5.908;2024-01-06T04:13:48;6.10;97.60
42037;DHT22;75222;52.004;5.908;2024-01-06T04:16:14;6.10;97.60
42037;DHT22;75222;52.004;5.908;2024-01-06T04:18:39;6.10;97.70
42037;DHT22;75222;52.004;5.908;2024-01-06T04:21:05;6.10;97.70
42037;DHT22;75222;52.004;5.908;2024-01-06T04:23:31;6.10;97.80
42037;DHT22;75222;52.004;5.908;2024-01-06T04:25:56;6.20;97.70
42037;DHT22;75222;52.004;5.908;2024-01-06T04:28:22;6.20;97.50
42037;DHT22;75222;52.004;5.908;2024-01-06T04:30:48;6.10;97.50
42037;DHT22;75222;52.004;5.908;2024-01-06T04:33:14;6.10;97.50
42037;DHT22;75222;52.004;5.908;2024-01-06T04:35:39;6.00;97.40
42037;DHT22;75222;52.004;5.908;2024-01-06T04:38:05;6.00;97.50
42037;DHT22;75222;52.004;5.908;2024-01-06T04:40:30;5.90;97.60
42037;DHT22;75222;52.004;5.908;2024-01-06T04:42:56;5.90;97.70
42037;DHT22;75222;52.004;5.908;2024-01-06T04:45:22;5.90;97.60
42037;DHT22;75222;52.004;5.908;2024-01-06T04:47:49;5.80;97.70
42037;DHT22;75222;52.004;5.908;2024-01-06T04:50:15;5.80;97.70
42037;DHT22;75222;52.004;5.908;2024-01-06T04:52:41;5.80;97.70
42037;DHT22;75222;52.004;5.908;2024-01-06T04:55:06;5.70;97.70
42037;DHT22;75222;52.004;5.908;2024-01-06T04:57:32;5.60;97.60
42037;DHT22;75222;52.004;5.908;2024-01-06T04:59:58;5.50;97.70
42037;DHT22;75222;52.004;5.908;2024-01-06T05:02:23;5.50;97.90
42037;DHT22;75222;52.004;5.908;2024-01-06T05:04:49;5.50;97.90
42037;DHT22;75222;52.004;5.908;2024-01-06T05:07:15;5.50;98.00
42037;DHT22;75222;52.004;5.908;2024-01-06T05:09:40;5.50;98.00
42037;DHT22;75222;52.004;5.908;2024-01-06T05:12:06;5.50;98.00
42037;DHT22;75222;52.004;5.908;2024-01-06T05:14:32;5.50;97.90
42037;DHT22;75222;52.004;5.908;2024-01-06T05:16:57;5.50;98.00
42037;DHT22;75222;52.004;5.908;2024-01-06T05:19:23;5.50;98.10
42037;DHT22;75222;52.004;5.908;2024-01-06T05:21:49;5.50;98.00
42037;DHT22;75222;52.004;5.908;2024-01-06T05:24:14;5.40;97.90
42037;DHT22;75222;52.004;5.908;2024-01-06T05:26:40;5.40;97.90
42037;DHT22;75222;52.004;5.908;2024-01-06T05:29:06;5.40;97.90
42037;DHT22;75222;52.004;5.908;2024-01-06T05:31:31;5.30;98.10
42037;DHT22;75222;52.004;5.908;2024-01-06T05:33:57;5.30;98.10
42037;DHT22;75222;52.004;5.908;2024-01-06T05:36:22;5.30;98.10
42037;DHT22;75222;52.004;5.908;2024-01-06T05:38:48;5.30;97.90
42037;DHT22;75222;52.004;5.908;2024-01-06T05:41:13;5.30;98.10
42037;DHT22;75222;52.004;5.908;2024-01-06T05:43:39;5.30;98.10
42037;DHT22;75222;52.004;5.908;2024-01-06T05:46:05;5.20;97.90
42037;DHT22;75222;52.004;5.908;2024-01-06T05:48:30;5.30;98.20
42037;DHT22;75222;52.004;5.908;2024-01-06T05:50:56;5.20;98.10
42037;DHT22;75222;52.004;5.908;2024-01-06T05:53:21;5.30;98.10
42037;DHT22;75222;52.004;5.908;2024-01-06T05:55:47;5.20;98.10
42037;DHT22;75222;52.004;5.908;2024-01-06T05:58:12;5.20;98.00
42037;DHT22;75222;52.004;5.908;2024-01-06T06:00:38;5.20;98.00
42037;DHT22;75222;52.004;5.908;2024-01-06T06:03:04;5.10;98.10
42037;DHT22;75222;52.004;5.908;2024-01-06T06:05:30;5.10;98.00
42037;DHT22;75222;52.004;5.908;2024-01-06T06:07:55;5.10;98.10
42037;DHT22;75222;52.004;5.908;2024-01-06T06:10:21;5.10;98.10
42037;DHT22;75222;52.004;5.908;2024-01-06T06:12:47;5.10;98.10
42037;DHT22;75222;52.004;5.908;2024-01-06T06:15:12;5.10;98.00
42037;DHT22;75222;52.004;5.908;2024-01-06T06:17:39;5.10;97.90
42037;DHT22;75222;52.004;5.908;2024-01-06T06:20:05;5.10;97.90
42037;DHT22;75222;52.004;5.908;2024-01-06T06:22:32;5.10;98.00
42037;DHT22;75222;52.004;5.908;2024-01-06T06:24:58;5.10;97.90
42037;DHT22;75222;52.004;5.908;2024-01-06T06:27:24;5.00;97.80
42037;DHT22;75222;52.004;5.908;2024-01-06T06:29:50;5.00;97.90
42037;DHT22;75222;52.004;5.908;2024-01-06T06:32:16;5.00;97.90
42037;DHT22;75222;52.004;5.908;2024-01-06T06:34:42;5.00;97.90
42037;DHT22;75222;52.004;5.908;2024-01-06T06:37:08;5.00;97.80
42037;DHT22;75222;52.004;5.908;2024-01-06T06:39:33;4.90;97.80
42037;DHT22;75222;52.004;5.908;2024-01-06T06:42:00;5.00;97.80
42037;DHT22;75222;52.004;5.908;2024-01-06T06:44:26;5.00;97.90
42037;DHT22;75222;52.004;5.908;2024-01-06T06:46:52;5.00;97.90
42037;DHT22;75222;52.004;5.908;2024-01-06T06:49:18;5.00;97.80
42037;DHT22;75222;52.004;5.908;2024-01-06T06:51:43;5.00;97.80
42037;DHT22;75222;52.004;5.908;2024-01-06T06:54:13;5.00;97.70
42037;DHT22;75222;52.004;5.908;2024-01-06T06:56:38;5.00;97.70
42037;DHT22;75222;52.004;5.908;2024-01-06T06:59:04;5.10;97.70
42037;DHT22;75222;52.004;5.908;2024-01-06T07:01:30;5.10;97.50
42037;DHT22;75222;52.004;5.908;2024-01-06T07:03:56;5.10;97.50
42037;DHT22;75222;52.004;5.908;2024-01-06T07:06:22;5.10;97.50
42037;DHT22;75222;52.004;5.908;2024-01-06T07:08:47;5.10;97.50
42037;DHT22;75222;52.004;5.908;2024-01-06T07:11:13;5.00;97.30
42037;DHT22;75222;52.004;5.908;2024-01-06T07:13:40;4.90;97.40
42037;DHT22;75222;52.004;5.908;2024-01-06T07:16:06;4.90;97.50
42037;DHT22;75222;52.004;5.908;2024-01-06T07:18:32;4.90;97.50
42037;DHT22;75222;52.004;5.908;2024-01-06T07:20:58;5.00;97.50
42037;DHT22;75222;52.004;5.908;2024-01-06T07:23:23;5.00;97.60
42037;DHT22;75222;52.004;5.908;2024-01-06T07:25:49;5.00;97.50
42037;DHT22;75222;52.004;5.908;2024-01-06T07:28:15;5.00;97.30
42037;DHT22;75222;52.004;5.908;2024-01-06T07:30:40;5.00;97.30
42037;DHT22;75222;52.004;5.908;2024-01-06T07:33:06;5.00;97.30
42037;DHT22;75222;52.004;5.908;2024-01-06T07:35:32;4.90;97.20
42037;DHT22;75222;52.004;5.908;2024-01-06T07:37:57;4.90;97.30
42037;DHT22;75222;52.004;5.908;2024-01-06T07:40:23;4.90;97.40
42037;DHT22;75222;52.004;5.908;2024-01-06T07:42:50;4.90;97.30
42037;DHT22;75222;52.004;5.908;2024-01-06T07:45:16;4.90;97.30
42037;DHT22;75222;52.004;5.908;2024-01-06T07:47:42;4.90;97.30
42037;DHT22;75222;52.004;5.908;2024-01-06T07:50:08;4.80;97.30
42037;DHT22;75222;52.004;5.908;2024-01-06T07:52:34;4.80;97.30
42037;DHT22;75222;52.004;5.908;2024-01-06T07:55:00;4.80;97.30
42037;DHT22;75222;52.004;5.908;2024-01-06T07:57:25;4.80;97.30
42037;DHT22;75222;52.004;5.908;2024-01-06T07:59:51;4.90;97.30
42037;DHT22;75222;52.004;5.908;2024-01-06T08:02:16;4.90;97.20
42037;DHT22;75222;52.004;5.908;2024-01-06T08:04:42;4.90;97.30
42037;DHT22;75222;52.004;5.908;2024-01-06T08:07:08;4.90;97.40
42037;DHT22;75222;52.004;5.908;2024-01-06T08:09:33;4.90;97.10
42037;DHT22;75222;52.004;5.908;2024-01-06T08:11:59;4.90;97.10
42037;DHT22;75222;52.004;5.908;2024-01-06T08:14:24;4.90;97.10
42037;DHT22;75222;52.004;5.908;2024-01-06T08:16:50;4.80;97.00
42037;DHT22;75222;52.004;5.908;2024-01-06T08:19:15;4.90;97.10
42037;DHT22;75222;52.004;5.908;2024-01-06T08:21:41;4.80;97.00
42037;DHT22;75222;52.004;5.908;2024-01-06T08:24:07;4.70;97.00
42037;DHT22;75222;52.004;5.908;2024-01-06T08:26:33;4.70;97.00
42037;DHT22;75222;52.004;5.908;2024-01-06T08:28:59;4.70;97.10
42037;DHT22;75222;52.004;5.908;2024-01-06T08:31:24;4.70;97.10
42037;DHT22;75222;52.004;5.908;2024-01-06T08:33:50;4.70;97.00
42037;DHT22;75222;52.004;5.908;2024-01-06T08:36:15;4.70;97.20
42037;DHT22;75222;52.004;5.908;2024-01-06T08:38:41;4.70;97.00
42037;DHT22;75222;52.004;5.908;2024-01-06T08:41:07;4.70;97.10
42037;DHT22;75222;52.004;5.908;2024-01-06T08:43:32;4.70;97.20
42037;DHT22;75222;52.004;5.908;2024-01-06T08:45:58;4.70;97.00
42037;DHT22;75222;52.004;5.908;2024-01-06T08:48:24;4.60;97.00
42037;DHT22;75222;52.004;5.908;2024-01-06T08:50:50;4.60;97.00
42037;DHT22;75222;52.004;5.908;2024-01-06T08:53:16;4.60;97.10
42037;DHT22;75222;52.004;5.908;2024-01-06T08:55:41;4.60;97.10
42037;DHT22;75222;52.004;5.908;2024-01-06T08:58:07;4.60;97.00
42037;DHT22;75222;52.004;5.908;2024-01-06T09:00:33;4.60;97.10
42037;DHT22;75222;52.004;5.908;2024-01-06T09:02:58;4.70;97.10
42037;DHT22;75222;52.004;5.908;2024-01-06T09:05:25;4.60;97.00
42037;DHT22;75222;52.004;5.908;2024-01-06T09:07:50;4.60;97.00
42037;DHT22;75222;52.004;5.908;2024-01-06T09:10:17;4.60;97.00
42037;DHT22;75222;52.004;5.908;2024-01-06T09:12:43;4.70;97.00
42037;DHT22;75222;52.004;5.908;2024-01-06T09:15:08;4.70;96.90
42037;DHT22;75222;52.004;5.908;2024-01-06T09:17:34;4.80;96.80
42037;DHT22;75222;52.004;5.908;2024-01-06T09:20:00;4.70;96.70
42037;DHT22;75222;52.004;5.908;2024-01-06T09:22:26;4.70;96.80
42037;DHT22;75222;52.004;5.908;2024-01-06T09:24:52;4.80;96.90
42037;DHT22;75222;52.004;5.908;2024-01-06T09:27:18;4.80;96.90
42037;DHT22;75222;52.004;5.908;2024-01-06T09:29:44;4.80;96.90
42037;DHT22;75222;52.004;5.908;2024-01-06T09:32:09;4.80;96.80
42037;DHT22;75222;52.004;5.908;2024-01-06T09:34:35;4.80;96.60
42037;DHT22;75222;52.004;5.908;2024-01-06T09:37:00;4.70;96.60
42037;DHT22;75222;52.004;5.908;2024-01-06T09:39:26;4.60;96.70
42037;DHT22;75222;52.004;5.908;2024-01-06T09:41:52;4.60;96.80
42037;DHT22;75222;52.004;5.908;2024-01-06T09:44:17;4.60;96.80
42037;DHT22;75222;52.004;5.908;2024-01-06T09:46:44;4.60;96.80
42037;DHT22;75222;52.004;5.908;2024-01-06T09:49:10;4.60;96.90
42037;DHT22;75222;52.004;5.908;2024-01-06T09:51:39;4.60;96.90
42037;DHT22;75222;52.004;5.908;2024-01-06T09:54:08;4.70;96.90
42037;DHT22;75222;52.004;5.908;2024-01-06T09:56:34;4.70;96.80
42037;DHT22;75222;52.004;5.908;2024-01-06T09:59:00;4.60;96.60
42037;DHT22;75222;52.004;5.908;2024-01-06T10:01:26;4.60;96.60
42037;DHT22;75222;52.004;5.908;2024-01-06T10:03:51;4.70;96.80
42037;DHT22;75222;52.004;5.908;2024-01-06T10:06:17;4.70;96.80
42037;DHT22;75222;52.004;5.908;2024-01-06T10:08:50;4.80;96.70
42037;DHT22;75222;52.004;5.908;2024-01-06T10:11:16;4.70;96.60
42037;DHT22;75222;52.004;5.908;2024-01-06T10:13:42;4.70;96.50
42037;DHT22;75222;52.004;5.908;2024-01-06T10:16:08;4.70;96.40
42037;DHT22;75222;52.004;5.908;2024-01-06T10:18:34;4.60;96.40
42037;DHT22;75222;52.004;5.908;2024-01-06T10:21:03;4.50;96.50
42037;DHT22;75222;52.004;5.908;2024-01-06T10:23:31;4.80;96.70
42037;DHT22;75222;52.004;5.908;2024-01-06T10:25:57;4.60;96.60
42037;DHT22;75222;52.004;5.908;2024-01-06T10:28:23;4.60;96.60
42037;DHT22;75222;52.004;5.908;2024-01-06T10:30:51;4.60;96.60
42037;DHT22;75222;52.004;5.908;2024-01-06T10:33:18;4.60;96.60
42037;DHT22;75222;52.004;5.908;2024-01-06T10:35:44;4.70;96.60
42037;DHT22;75222;52.004;5.908;2024-01-06T10:38:11;4.70;96.50
42037;DHT22;75222;52.004;5.908;2024-01-06T10:40:37;4.70;96.50
42037;DHT22;75222;52.004;5.908;2024-01-06T10:43:03;4.80;96.40
42037;DHT22;75222;52.004;5.908;2024-01-06T10:45:29;4.80;96.30
42037;DHT22;75222;52.004;5.908;2024-01-06T10:47:55;4.60;96.30
42037;DHT22;75222;52.004;5.908;2024-01-06T10:50:22;4.70;96.40
42037;DHT22;75222;52.004;5.908;2024-01-06T10:52:48;4.60;96.30
42037;DHT22;75222;52.004;5.908;2024-01-06T10:55:18;4.60;96.40
42037;DHT22;75222;52.004;5.908;2024-01-06T10:57:46;4.60;96.30
42037;DHT22;75222;52.004;5.908;2024-01-06T11:00:12;4.50;96.30
42037;DHT22;75222;52.004;5.908;2024-01-06T11:02:39;4.60;96.40
42037;DHT22;75222;52.004;5.908;2024-01-06T11:05:05;4.60;96.40
42037;DHT22;75222;52.004;5.908;2024-01-06T11:07:33;4.60;96.30
42037;DHT22;75222;52.004;5.908;2024-01-06T11:10:11;4.60;96.20
42037;DHT22;75222;52.004;5.908;2024-01-06T11:12:37;4.50;96.20
42037;DHT22;75222;52.004;5.908;2024-01-06T11:15:03;4.50;96.20
42037;DHT22;75222;52.004;5.908;2024-01-06T11:17:48;4.40;96.20
42037;DHT22;75222;52.004;5.908;2024-01-06T11:20:14;4.50;96.40
42037;DHT22;75222;52.004;5.908;2024-01-06T11:22:40;4.50;96.40
42037;DHT22;75222;52.004;5.908;2024-01-06T11:25:08;4.50;96.30
42037;DHT22;75222;52.004;5.908;2024-01-06T11:27:38;4.50;96.30
42037;DHT22;75222;52.004;5.908;2024-01-06T11:30:04;4.50;96.10
42037;DHT22;75222;52.004;5.908;2024-01-06T11:35:11;4.40;96.20
42037;DHT22;75222;52.004;5.908;2024-01-06T11:42:42;4.40;96.20
42037;DHT22;75222;52.004;5.908;2024-01-06T11:45:09;4.40;96.30
42037;DHT22;75222;52.004;5.908;2024-01-06T11:47:35;4.30;96.20
42037;DHT22;75222;52.004;5.908;2024-01-06T11:50:02;4.40;96.30
42037;DHT22;75222;52.004;5.908;2024-01-06T11:52:34;4.40;96.30
42037;DHT22;75222;52.004;5.908;2024-01-06T11:55:00;4.30;96.20
42037;DHT22;75222;52.004;5.908;2024-01-06T11:57:27;4.30;96.10
42037;DHT22;75222;52.004;5.908;2024-01-06T11:59:53;4.30;96.20
42037;DHT22;75222;52.004;5.908;2024-01-06T12:02:19;4.30;96.30
42037;DHT22;75222;52.004;5.908;2024-01-06T12:04:52;4.30;96.20
42037;DHT22;75222;52.004;5.908;2024-01-06T12:07:19;4.30;96.20
42037;DHT22;75222;52.004;5.908;2024-01-06T12:09:46;4.20;96.20
42037;DHT22;75222;52.004;5.908;2024-01-06T12:12:15;4.20;96.30
42037;DHT22;75222;52.004;5.908;2024-01-06T12:14:41;4.20;96.20
42037;DHT22;75222;52.004;5.908;2024-01-06T12:17:12;4.10;96.10
42037;DHT22;75222;52.004;5.908;2024-01-06T12:19:39;4.20;96.30
42037;DHT22;75222;52.004;5.908;2024-01-06T12:22:09;4.10;96.40
42037;DHT22;75222;52.004;5.908;2024-01-06T12:24:35;4.20;96.30
42037;DHT22;75222;52.004;5.908;2024-01-06T12:27:01;4.10;96.20
42037;DHT22;75222;52.004;5.908;2024-01-06T12:29:27;4.10;96.20
42037;DHT22;75222;52.004;5.908;2024-01-06T12:31:59;4.10;96.30
42037;DHT22;75222;52.004;5.908;2024-01-06T12:34:25;4.20;96.30
42037;DHT22;75222;52.004;5.908;2024-01-06T12:36:53;4.20;96.20
42037;DHT22;75222;52.004;5.908;2024-01-06T12:39:19;4.20;96.20
42037;DHT22;75222;52.004;5.908;2024-01-06T12:41:45;4.20;96.40
42037;DHT22;75222;52.004;5.908;2024-01-06T12:44:10;4.20;96.10
42037;DHT22;75222;52.004;5.908;2024-01-06T12:46:36;4.30;96.10
42037;DHT22;75222;52.004;5.908;2024-01-06T12:49:02;4.30;96.10
42037;DHT22;75222;52.004;5.908;2024-01-06T12:51:28;4.20;96.00
42037;DHT22;75222;52.004;5.908;2024-01-06T12:53:53;4.20;96.10
42037;DHT22;75222;52.004;5.908;2024-01-06T12:56:19;4.30;96.10
42037;DHT22;75222;52.004;5.908;2024-01-06T12:58:45;4.30;96.10
42037;DHT22;75222;52.004;5.908;2024-01-06T13:01:11;4.30;96.10
42037;DHT22;75222;52.004;5.908;2024-01-06T13:03:36;4.30;96.10
42037;DHT22;75222;52.004;5.908;2024-01-06T13:06:02;4.20;96.00
42037;DHT22;75222;52.004;5.908;2024-01-06T13:08:28;4.20;96.10
42037;DHT22;75222;52.004;5.908;2024-01-06T13:10:55;4.20;96.10
42037;DHT22;75222;52.004;5.908;2024-01-06T13:13:21;4.20;96.00
42037;DHT22;75222;52.004;5.908;2024-01-06T13:15:47;4.30;96.10
42037;DHT22;75222;52.004;5.908;2024-01-06T13:18:12;4.30;96.10
42037;DHT22;75222;52.004;5.908;2024-01-06T13:20:39;4.30;96.00
42037;DHT22;75222;52.004;5.908;2024-01-06T13:23:06;4.30;95.90
42037;DHT22;75222;52.004;5.908;2024-01-06T13:25:32;4.30;95.90
42037;DHT22;75222;52.004;5.908;2024-01-06T13:27:58;4.30;96.00
42037;DHT22;75222;52.004;5.908;2024-01-06T13:30:25;4.30;96.00
42037;DHT22;75222;52.004;5.908;2024-01-06T13:32:51;4.30;96.10
42037;DHT22;75222;52.004;5.908;2024-01-06T13:35:22;4.30;96.10
42037;DHT22;75222;52.004;5.908;2024-01-06T13:37:50;4.20;96.00
42037;DHT22;75222;52.004;5.908;2024-01-06T13:40:17;4.20;96.10
42037;DHT22;75222;52.004;5.908;2024-01-06T13:42:46;4.20;96.10
42037;DHT22;75222;52.004;5.908;2024-01-06T13:45:12;4.30;96.00
42037;DHT22;75222;52.004;5.908;2024-01-06T13:47:38;4.20;96.00
42037;DHT22;75222;52.004;5.908;2024-01-06T13:50:07;4.30;96.00
42037;DHT22;75222;52.004;5.908;2024-01-06T13:52:33;4.20;96.00
42037;DHT22;75222;52.004;5.908;2024-01-06T13:55:00;4.20;96.10
42037;DHT22;75222;52.004;5.908;2024-01-06T13:57:26;4.10;96.00
42037;DHT22;75222;52.004;5.908;2024-01-06T13:59:51;4.10;96.30
42037;DHT22;75222;52.004;5.908;2024-01-06T14:02:17;4.20;96.30
42037;DHT22;75222;52.004;5.908;2024-01-06T14:04:43;4.20;96.30
42037;DHT22;75222;52.004;5.908;2024-01-06T14:07:08;4.20;96.30
42037;DHT22;75222;52.004;5.908;2024-01-06T14:09:35;4.10;96.20
42037;DHT22;75222;52.004;5.908;2024-01-06T14:12:01;4.20;96.20
42037;DHT22;75222;52.004;5.908;2024-01-06T14:14:27;4.20;96.20
42037;DHT22;75222;52.004;5.908;2024-01-06T14:16:52;4.20;96.10
42037;DHT22;75222;52.004;5.908;2024-01-06T14:19:18;4.20;96.10
42037;DHT22;75222;52.004;5.908;2024-01-06T14:21:44;4.20;96.10
42037;DHT22;75222;52.004;5.908;2024-01-06T14:24:09;4.20;96.10
42037;DHT22;75222;52.004;5.908;2024-01-06T14:26:35;4.20;96.10
42037;DHT22;75222;52.004;5.908;2024-01-06T14:29:01;4.20;96.10
42037;DHT22;75222;52.004;5.908;2024-01-06T14:31:26;4.20;96.10
42037;DHT22;75222;52.004;5.908;2024-01-06T14:33:52;4.20;96.10
42037;DHT22;75222;52.004;5.908;2024-01-06T14:36:18;4.10;96.20
42037;DHT22;75222;52.004;5.908;2024-01-06T14:38:44;4.10;96.20
42037;DHT22;75222;52.004;5.908;2024-01-06T14:41:09;4.20;96.30
42037;DHT22;75222;52.004;5.908;2024-01-06T14:43:35;4.20;96.20
42037;DHT22;75222;52.004;5.908;2024-01-06T14:46:00;4.10;96.10
42037;DHT22;75222;52.004;5.908;2024-01-06T14:48:26;4.10;96.20
42037;DHT22;75222;52.004;5.908;2024-01-06T14:50:52;4.20;96.20
42037;DHT22;75222;52.004;5.908;2024-01-06T14:53:17;4.20;96.20
42037;DHT22;75222;52.004;5.908;2024-01-06T14:55:43;4.20;96.20
42037;DHT22;75222;52.004;5.908;2024-01-06T14:58:08;4.20;96.00
42037;DHT22;75222;52.004;5.908;2024-01-06T15:00:35;4.20;96.00
42037;DHT22;75222;52.004;5.908;2024-01-06T15:03:03;4.10;96.10
42037;DHT22;75222;52.004;5.908;2024-01-06T15:05:28;4.10;96.20
42037;DHT22;75222;52.004;5.908;2024-01-06T15:07:55;4.10;96.30
42037;DHT22;75222;52.004;5.908;2024-01-06T15:10:21;4.10;96.20
42037;DHT22;75222;52.004;5.908;2024-01-06T15:12:47;4.10;96.10
42037;DHT22;75222;52.004;5.908;2024-01-06T15:15:13;4.10;96.10
42037;DHT22;75222;52.004;5.908;2024-01-06T15:17:38;4.10;96.20
42037;DHT22;75222;52.004;5.908;2024-01-06T15:20:05;4.10;96.00
42037;DHT22;75222;52.004;5.908;2024-01-06T15:22:31;4.10;96.00
42037;DHT22;75222;52.004;5.908;2024-01-06T15:24:56;4.10;96.00
42037;DHT22;75222;52.004;5.908;2024-01-06T15:27:22;4.00;95.90
42037;DHT22;75222;52.004;5.908;2024-01-06T15:29:48;4.00;96.00
42037;DHT22;75222;52.004;5.908;2024-01-06T15:32:14;4.10;96.00
42037;DHT22;75222;52.004;5.908;2024-01-06T15:34:39;4.10;96.00
42037;DHT22;75222;52.004;5.908;2024-01-06T15:37:05;4.10;96.00
42037;DHT22;75222;52.004;5.908;2024-01-06T15:39:30;4.10;96.00
42037;DHT22;75222;52.004;5.908;2024-01-06T15:41:56;4.10;95.90
42037;DHT22;75222;52.004;5.908;2024-01-06T15:44:21;4.10;95.80